Аэропорт: Емельяново. Красноярск

ICAO: UNKL

METAR:
2021-04-21 21:30:00
UNKL 212130Z 29002MPS CAVOK M08/M13 Q1029 R29/CLRD65 NOSIG RMK QFE746
METAR:
2021-04-21 19:47:00
TAF UNKL 211947Z 2121/2221 27003MPS 7000 NSC FM220100 05003G10MPS CAVOK